Sidney Rae — WDJ3355 — position and weather

sailwx.info

Track history (hours):
 
Tides and Currents Weather Stations Pressure Air Temp Water Temp Dewpoint Dewpoint Depression Visibility Wind Speed Wind Dir Waves Ship Positions

Sidney Rae

Owner: ORION MARINE CONSTRUCTION, INC., PORT LAVACA, TX. More information available from US FCC via Universal Licensing System and Coast Guard Vessel Documentation Center.

Last reported at 2017-Dec-02 09:46 UTC. Time now 2017-Dec-14 04:14 UTC.
Position N 28°22' W 096°35'.
Warning: this ship's position is 11 days out of date.

Length 20 m; draft 20 m.

Type: Tug. MMSI: 367767220.

Date/timePositionNaut miles runAvg speedWind from/ knotsBaromVisibWave heightAir tempDewpointWater temp
2017-Dec-02 09:46N 28°22' W 096°35'2 6.4
2017-Dec-02 09:27N 28°21' W 096°37'4 6.6
2017-Dec-02 08:54N 28°19' W 096°41'3 6.7
2017-Dec-02 08:30N 28°17' W 096°43'4 6.8
2017-Dec-02 07:59N 28°15' W 096°46'3 6.8
2017-Dec-02 07:29N 28°13' W 096°49'4 7.3
2017-Dec-02 07:00N 28°10' W 096°52'4 7.4
2017-Dec-02 06:30N 28°07' W 096°55'4 6.9
2017-Dec-02 05:59N 28°05' W 096°58'3 7.1
2017-Dec-02 05:30N 28°02' W 096°60'4 6.8
2017-Dec-02 04:59N 27°60' W 097°03'3 6.3
2017-Dec-02 04:29N 27°58' W 097°06'3 7.2
2017-Dec-02 03:59N 27°55' W 097°08'5 3.5
2017-Dec-02 02:28N 27°50' W 097°11'3 6.4
2017-Dec-02 02:00N 27°53' W 097°09'3 6.1
2017-Dec-02 01:30N 27°55' W 097°07'3 5.8
2017-Dec-02 00:59N 27°58' W 097°06'3 5.7
2017-Dec-02 00:30N 27°60' W 097°03'3 6.1
2017-Dec-02 00:00N 28°01' W 097°00'3 6.2
2017-Dec-01 23:30N 28°04' W 096°58'3 6.2
2017-Dec-01 22:58N 28°06' W 096°56'3 6.6
2017-Dec-01 22:30N 28°09' W 096°54'3 6.9
2017-Dec-01 21:59N 28°11' W 096°51'3 6.5
2017-Dec-01 21:30N 28°13' W 096°48'3 6.5
2017-Dec-01 21:00N 28°15' W 096°45'3 6.5
2017-Dec-01 20:29N 28°17' W 096°42'3 6.2
2017-Dec-01 20:00N 28°19' W 096°40'4 6.0
2017-Dec-01 19:21N 28°21' W 096°36'2 4.9
2017-Dec-01 19:00N 28°22' W 096°34'3 5.7
2017-Dec-01 18:30N 28°23' W 096°31'3 5.8
2017-Dec-01 17:56N 28°25' W 096°28'3 5.6
2017-Dec-01 17:29N 28°26' W 096°26'2 4.3
2017-Dec-01 16:58N 28°28' W 096°24'9 6.7
2017-Dec-01 15:41N 28°34' W 096°31'6 2.6
2017-Dec-01 13:24N 28°34' W 096°37'0 0.0
2017-Dec-01 12:58N 28°34' W 096°37'0 0.0
2017-Dec-01 12:04N 28°34' W 096°37'0 0.0
2017-Dec-01 11:54N 28°34' W 096°37'0 0.0
2017-Dec-01 10:24N 28°34' W 096°37'0 0.0
2017-Dec-01 09:59N 28°34' W 096°37'0 0.0
2017-Dec-01 09:19N 28°34' W 096°37'0 0.0
2017-Dec-01 08:23N 28°34' W 096°37'0 0.0
2017-Dec-01 07:59N 28°34' W 096°37'0 0.0
2017-Dec-01 04:38N 28°34' W 096°37'0 0.1
2017-Dec-01 04:29N 28°34' W 096°37'0 0.0
2017-Dec-01 03:59N 28°34' W 096°37'0 0.0
2017-Dec-01 03:29N 28°34' W 096°37'0 0.0
2017-Dec-01 03:00N 28°34' W 096°37'0 0.0
2017-Dec-01 02:30N 28°34' W 096°37'0 0.0
2017-Dec-01 01:58N 28°34' W 096°37'3 0.2
2017-Nov-30 10:47N 28°37' W 096°37'0 0.0
2017-Nov-30 10:29N 28°37' W 096°37'0 0.0
2017-Nov-30 09:59N 28°37' W 096°37'0 0.0
2017-Nov-30 09:31N 28°37' W 096°37'0 0.0
2017-Nov-30 08:58N 28°37' W 096°37'0 0.0
2017-Nov-30 08:30N 28°37' W 096°37'0 0.0
2017-Nov-30 08:00N 28°37' W 096°37'0 0.0
2017-Nov-30 07:23N 28°37' W 096°37'0 0.0
2017-Nov-30 06:47N 28°37' W 096°37'9 3.9
2017-Nov-30 04:25N 28°32' W 096°29'17 3.9
2017-Nov-30 00:04N 28°19' W 096°41'0 5.7
2017-Nov-29 23:59N 28°20' W 096°41'11 0.3
2017-Nov-28 06:27N 28°30' W 096°48'2 3.6
2017-Nov-28 05:51N 28°27' W 096°47'2 4.1
2017-Nov-28 05:28N 28°27' W 096°46'5 5.3
2017-Nov-28 04:26N 28°22' W 096°43'4 5.3
2017-Nov-28 03:46N 28°19' W 096°40'15 5.6
2017-Nov-28 01:09N 28°26' W 096°26'1 4.7
2017-Nov-28 00:59N 28°26' W 096°25'13 0.4
2017-Nov-26 16:04N 28°35' W 096°37'0 4.4
2017-Nov-26 16:00N 28°35' W 096°36'2 3.6
2017-Nov-26 15:29N 28°36' W 096°35'3 6.8
2017-Nov-26 14:59N 28°34' W 096°32'3 6.9
2017-Nov-26 14:30N 28°32' W 096°29'4 7.0
2017-Nov-26 13:59N 28°30' W 096°25'3 5.8
2017-Nov-26 13:29N 28°27' W 096°23'2 4.9
2017-Nov-26 12:59N 28°26' W 096°26'3 6.2
2017-Nov-26 12:29N 28°25' W 096°29'3 6.3
2017-Nov-26 12:01N 28°23' W 096°32'10 6.1
2017-Nov-26 10:22N 28°18' W 096°42'2 5.5
2017-Nov-26 10:00N 28°17' W 096°43'3 6.1
2017-Nov-26 09:29N 28°15' W 096°46'3 6.0
2017-Nov-26 08:56N 28°13' W 096°49'3 5.9
2017-Nov-26 08:29N 28°11' W 096°51'3 6.0
2017-Nov-26 07:59N 28°09' W 096°54'3 5.4
2017-Nov-26 07:30N 28°07' W 096°56'3 6.4
2017-Nov-26 06:59N 28°04' W 096°58'3 6.6
2017-Nov-26 06:29N 28°02' W 097°00'3 6.3
2017-Nov-26 06:00N 27°60' W 097°03'3 5.6
2017-Nov-26 05:29N 27°58' W 097°05'3 5.9
2017-Nov-26 04:59N 27°55' W 097°07'3 6.1
2017-Nov-26 04:28N 27°53' W 097°09'3 5.9
2017-Nov-26 04:00N 27°50' W 097°11'3 4.3
2017-Nov-26 03:25N 27°49' W 097°13'1 2.6
2017-Nov-26 02:59N 27°50' W 097°14'0 0.8
2017-Nov-26 02:30N 27°50' W 097°14'3 5.0
2017-Nov-26 01:59N 27°49' W 097°11'3 6.2
2017-Nov-26 01:29N 27°52' W 097°10'3 5.8
2017-Nov-26 01:00N 27°54' W 097°08'3 6.6
2017-Nov-26 00:30N 27°57' W 097°06'3 5.7
2017-Nov-25 23:59N 27°60' W 097°04'3 6.5
2017-Nov-25 23:29N 28°01' W 097°01'3 6.8
2017-Nov-25 23:00N 28°04' W 096°58'3 6.7
2017-Nov-25 22:30N 28°07' W 096°56'3 6.5
2017-Nov-25 21:59N 28°09' W 096°54'3 6.7
2017-Nov-25 21:30N 28°11' W 096°51'3 6.5
2017-Nov-25 21:00N 28°13' W 096°48'4 6.7
2017-Nov-25 20:23N 28°16' W 096°44'  
Track history (hours):
 
Tides and Currents Weather Stations Pressure Air Temp Water Temp Dewpoint Dewpoint Depression Visibility Wind Speed Wind Dir Waves Ship Positions

Sidney Rae

Owner: ORION MARINE CONSTRUCTION, INC., PORT LAVACA, TX. More information available from US FCC via Universal Licensing System and Coast Guard Vessel Documentation Center.

Last reported at 2017-Dec-02 09:46 UTC. Time now 2017-Dec-14 04:14 UTC.
Position N 28°22' W 096°35'.
Warning: this ship's position is 11 days out of date.

Length 20 m; draft 20 m.

Type: Tug. MMSI: 367767220.

Date/timePositionNaut miles runAvg speedWind from/ knotsBaromVisibWave heightAir tempDewpointWater temp
2017-Dec-02 09:46N 28°22' W 096°35'2 6.4
2017-Dec-02 09:27N 28°21' W 096°37'4 6.6
2017-Dec-02 08:54N 28°19' W 096°41'3 6.7
2017-Dec-02 08:30N 28°17' W 096°43'4 6.8
2017-Dec-02 07:59N 28°15' W 096°46'3 6.8
2017-Dec-02 07:29N 28°13' W 096°49'4 7.3
2017-Dec-02 07:00N 28°10' W 096°52'4 7.4
2017-Dec-02 06:30N 28°07' W 096°55'4 6.9
2017-Dec-02 05:59N 28°05' W 096°58'3 7.1
2017-Dec-02 05:30N 28°02' W 096°60'4 6.8
2017-Dec-02 04:59N 27°60' W 097°03'3 6.3
2017-Dec-02 04:29N 27°58' W 097°06'3 7.2
2017-Dec-02 03:59N 27°55' W 097°08'5 3.5
2017-Dec-02 02:28N 27°50' W 097°11'3 6.4
2017-Dec-02 02:00N 27°53' W 097°09'3 6.1
2017-Dec-02 01:30N 27°55' W 097°07'3 5.8
2017-Dec-02 00:59N 27°58' W 097°06'3 5.7
2017-Dec-02 00:30N 27°60' W 097°03'3 6.1
2017-Dec-02 00:00N 28°01' W 097°00'3 6.2
2017-Dec-01 23:30N 28°04' W 096°58'3 6.2
2017-Dec-01 22:58N 28°06' W 096°56'3 6.6
2017-Dec-01 22:30N 28°09' W 096°54'3 6.9
2017-Dec-01 21:59N 28°11' W 096°51'3 6.5
2017-Dec-01 21:30N 28°13' W 096°48'3 6.5
2017-Dec-01 21:00N 28°15' W 096°45'3 6.5
2017-Dec-01 20:29N 28°17' W 096°42'3 6.2
2017-Dec-01 20:00N 28°19' W 096°40'4 6.0
2017-Dec-01 19:21N 28°21' W 096°36'2 4.9
2017-Dec-01 19:00N 28°22' W 096°34'3 5.7
2017-Dec-01 18:30N 28°23' W 096°31'3 5.8
2017-Dec-01 17:56N 28°25' W 096°28'3 5.6
2017-Dec-01 17:29N 28°26' W 096°26'2 4.3
2017-Dec-01 16:58N 28°28' W 096°24'9 6.7
2017-Dec-01 15:41N 28°34' W 096°31'6 2.6
2017-Dec-01 13:24N 28°34' W 096°37'0 0.0
2017-Dec-01 12:58N 28°34' W 096°37'0 0.0
2017-Dec-01 12:04N 28°34' W 096°37'0 0.0
2017-Dec-01 11:54N 28°34' W 096°37'0 0.0
2017-Dec-01 10:24N 28°34' W 096°37'0 0.0
2017-Dec-01 09:59N 28°34' W 096°37'0 0.0
2017-Dec-01 09:19N 28°34' W 096°37'0 0.0
2017-Dec-01 08:23N 28°34' W 096°37'0 0.0
2017-Dec-01 07:59N 28°34' W 096°37'0 0.0
2017-Dec-01 04:38N 28°34' W 096°37'0 0.1
2017-Dec-01 04:29N 28°34' W 096°37'0 0.0
2017-Dec-01 03:59N 28°34' W 096°37'0 0.0
2017-Dec-01 03:29N 28°34' W 096°37'0 0.0
2017-Dec-01 03:00N 28°34' W 096°37'0 0.0
2017-Dec-01 02:30N 28°34' W 096°37'0 0.0
2017-Dec-01 01:58N 28°34' W 096°37'3 0.2
2017-Nov-30 10:47N 28°37' W 096°37'0 0.0
2017-Nov-30 10:29N 28°37' W 096°37'0 0.0
2017-Nov-30 09:59N 28°37' W 096°37'0 0.0
2017-Nov-30 09:31N 28°37' W 096°37'0 0.0
2017-Nov-30 08:58N 28°37' W 096°37'0 0.0
2017-Nov-30 08:30N 28°37' W 096°37'0 0.0
2017-Nov-30 08:00N 28°37' W 096°37'0 0.0
2017-Nov-30 07:23N 28°37' W 096°37'0 0.0
2017-Nov-30 06:47N 28°37' W 096°37'9 3.9
2017-Nov-30 04:25N 28°32' W 096°29'17 3.9
2017-Nov-30 00:04N 28°19' W 096°41'0 5.7
2017-Nov-29 23:59N 28°20' W 096°41'11 0.3
2017-Nov-28 06:27N 28°30' W 096°48'2 3.6
2017-Nov-28 05:51N 28°27' W 096°47'2 4.1
2017-Nov-28 05:28N 28°27' W 096°46'5 5.3
2017-Nov-28 04:26N 28°22' W 096°43'4 5.3
2017-Nov-28 03:46N 28°19' W 096°40'15 5.6
2017-Nov-28 01:09N 28°26' W 096°26'1 4.7
2017-Nov-28 00:59N 28°26' W 096°25'13 0.4
2017-Nov-26 16:04N 28°35' W 096°37'0 4.4
2017-Nov-26 16:00N 28°35' W 096°36'2 3.6
2017-Nov-26 15:29N 28°36' W 096°35'3 6.8
2017-Nov-26 14:59N 28°34' W 096°32'3 6.9
2017-Nov-26 14:30N 28°32' W 096°29'4 7.0
2017-Nov-26 13:59N 28°30' W 096°25'3 5.8
2017-Nov-26 13:29N 28°27' W 096°23'2 4.9
2017-Nov-26 12:59N 28°26' W 096°26'3 6.2
2017-Nov-26 12:29N 28°25' W 096°29'3 6.3
2017-Nov-26 12:01N 28°23' W 096°32'10 6.1
2017-Nov-26 10:22N 28°18' W 096°42'2 5.5
2017-Nov-26 10:00N 28°17' W 096°43'3 6.1
2017-Nov-26 09:29N 28°15' W 096°46'3 6.0
2017-Nov-26 08:56N 28°13' W 096°49'3 5.9
2017-Nov-26 08:29N 28°11' W 096°51'3 6.0
2017-Nov-26 07:59N 28°09' W 096°54'3 5.4
2017-Nov-26 07:30N 28°07' W 096°56'3 6.4
2017-Nov-26 06:59N 28°04' W 096°58'3 6.6
2017-Nov-26 06:29N 28°02' W 097°00'3 6.3
2017-Nov-26 06:00N 27°60' W 097°03'3 5.6
2017-Nov-26 05:29N 27°58' W 097°05'3 5.9
2017-Nov-26 04:59N 27°55' W 097°07'3 6.1
2017-Nov-26 04:28N 27°53' W 097°09'3 5.9
2017-Nov-26 04:00N 27°50' W 097°11'3 4.3
2017-Nov-26 03:25N 27°49' W 097°13'1 2.6
2017-Nov-26 02:59N 27°50' W 097°14'0 0.8
2017-Nov-26 02:30N 27°50' W 097°14'3 5.0
2017-Nov-26 01:59N 27°49' W 097°11'3 6.2
2017-Nov-26 01:29N 27°52' W 097°10'3 5.8
2017-Nov-26 01:00N 27°54' W 097°08'3 6.6
2017-Nov-26 00:30N 27°57' W 097°06'3 5.7
2017-Nov-25 23:59N 27°60' W 097°04'3 6.5
2017-Nov-25 23:29N 28°01' W 097°01'3 6.8
2017-Nov-25 23:00N 28°04' W 096°58'3 6.7
2017-Nov-25 22:30N 28°07' W 096°56'3 6.5
2017-Nov-25 21:59N 28°09' W 096°54'3 6.7
2017-Nov-25 21:30N 28°11' W 096°51'3 6.5
2017-Nov-25 21:00N 28°13' W 096°48'4 6.7
2017-Nov-25 20:23N 28°16' W 096°44'  

Dump ship's entire track history